createdAt,value
2019-02-01T00:01:52.312Z,94331.16
2019-02-01T00:04:18.641Z,94341.55
2019-02-01T00:06:44.962Z,94346.37
2019-02-01T00:09:11.282Z,94350.09
2019-02-01T00:11:37.614Z,94351.26
2019-02-01T00:14:03.946Z,94351.02
2019-02-01T00:16:30.274Z,94350.12
2019-02-01T00:18:56.645Z,94358.41
2019-02-01T00:21:22.978Z,94356.55
2019-02-01T00:23:49.326Z,94362.88
2019-02-01T00:26:15.676Z,94365.91
2019-02-01T00:28:42.019Z,94378.50
2019-02-01T00:31:08.358Z,94376.90
2019-02-01T00:33:34.689Z,94379.83
2019-02-01T00:36:01.053Z,94387.64
2019-02-01T00:38:30.626Z,94386.03
2019-02-01T00:40:57.109Z,94392.45
2019-02-01T00:43:23.440Z,94387.31
2019-02-01T00:45:49.822Z,94388.14
2019-02-01T00:48:16.153Z,94392.13
2019-02-01T00:50:42.513Z,94395.03
2019-02-01T00:53:08.846Z,94390.60
2019-02-01T00:55:35.260Z,94400.77
2019-02-01T00:58:01.546Z,94408.83
2019-02-01T01:00:27.906Z,94415.50
2019-02-01T01:02:54.204Z,94408.38
2019-02-01T01:05:20.537Z,94412.47
2019-02-01T01:07:49.862Z,94422.25
2019-02-01T01:10:13.288Z,94413.89
2019-02-01T01:12:39.691Z,94406.43
2019-02-01T01:15:06.017Z,94410.67
2019-02-01T01:17:32.337Z,94408.02
2019-02-01T01:19:58.665Z,94402.25
2019-02-01T01:22:25.042Z,94413.67
2019-02-01T01:24:51.377Z,94428.05
2019-02-01T01:27:17.716Z,94417.98
2019-02-01T01:29:44.104Z,94421.05
2019-02-01T01:32:10.393Z,94417.20
2019-02-01T01:34:36.736Z,94430.81
2019-02-01T01:37:03.094Z,94422.09
2019-02-01T01:39:29.557Z,94430.83
2019-02-01T01:41:55.897Z,94437.14
2019-02-01T01:44:22.325Z,94425.56
2019-02-01T01:46:48.656Z,94438.08
2019-02-01T01:49:14.986Z,94438.05
2019-02-01T01:51:41.404Z,94429.63
2019-02-01T01:54:07.746Z,94445.05
2019-02-01T01:56:34.069Z,94441.19
2019-02-01T01:59:00.417Z,94441.06
2019-02-01T02:01:26.753Z,94446.33
2019-02-01T02:03:53.101Z,94451.80
2019-02-01T02:06:19.429Z,94450.27
2019-02-01T02:08:45.798Z,94454.37
2019-02-01T02:11:12.253Z,94445.78
2019-02-01T02:13:38.649Z,94457.91
2019-02-01T02:16:04.970Z,94455.80
2019-02-01T02:18:31.333Z,94453.13
2019-02-01T02:20:57.679Z,94462.48
2019-02-01T02:23:24.014Z,94455.52
2019-02-01T02:25:50.346Z,94460.48
2019-02-01T02:28:16.754Z,94456.98
2019-02-01T02:30:43.201Z,94458.73
2019-02-01T02:33:09.597Z,94465.23
2019-02-01T02:35:35.942Z,94462.30
2019-02-01T02:38:02.298Z,94467.09
2019-02-01T02:40:28.632Z,94467.91
2019-02-01T02:42:54.969Z,94468.62
2019-02-01T02:45:21.301Z,94469.05
2019-02-01T02:47:47.648Z,94469.55
2019-02-01T02:50:13.978Z,94467.33
2019-02-01T02:52:40.300Z,94465.88
2019-02-01T02:55:06.647Z,94470.55
2019-02-01T02:57:32.997Z,94478.48
2019-02-01T02:59:59.318Z,94470.91
2019-02-01T03:02:25.753Z,94471.83
2019-02-01T03:04:52.130Z,94475.11
2019-02-01T03:07:18.463Z,94479.05
2019-02-01T03:09:44.843Z,94485.15
2019-02-01T03:12:11.141Z,94486.19
2019-02-01T03:14:37.469Z,94493.69
2019-02-01T03:17:03.840Z,94501.15
2019-02-01T03:19:30.189Z,94504.76
2019-02-01T03:21:56.510Z,94503.61
2019-02-01T03:24:22.995Z,94500.89
2019-02-01T03:26:49.160Z,94504.05
2019-02-01T03:29:15.522Z,94510.72
2019-02-01T03:31:41.863Z,94514.33
2019-02-01T03:34:08.200Z,94523.58
2019-02-01T03:36:34.542Z,94525.41
2019-02-01T03:39:00.950Z,94524.05
2019-02-01T03:41:27.206Z,94528.22
2019-02-01T03:43:53.535Z,94527.30
2019-02-01T03:46:19.888Z,94533.25
2019-02-01T03:48:46.224Z,94538.19
2019-02-01T03:51:12.556Z,94533.61
2019-02-01T03:53:38.878Z,94527.97
2019-02-01T03:56:05.208Z,94532.65
2019-02-01T03:58:31.541Z,94539.40
2019-02-01T04:00:57.881Z,94539.76
2019-02-01T04:03:24.210Z,94532.50
2019-02-01T04:05:50.571Z,94528.72
2019-02-01T04:08:17.028Z,94534.89
2019-02-01T04:10:43.462Z,94553.93
2019-02-01T04:13:09.802Z,94549.11
2019-02-01T04:15:36.130Z,94540.81
2019-02-01T04:18:02.533Z,94556.56
2019-02-01T04:20:28.885Z,94559.56
2019-02-01T04:22:55.217Z,94559.91
2019-02-01T04:25:21.545Z,94557.20
2019-02-01T04:27:47.934Z,94558.16
2019-02-01T04:30:14.315Z,94556.88
2019-02-01T04:32:40.723Z,94563.31
2019-02-01T04:35:07.050Z,94562.58
2019-02-01T04:37:33.516Z,94557.03
2019-02-01T04:39:59.885Z,94555.84
2019-02-01T04:42:26.267Z,94562.95
2019-02-01T04:44:52.597Z,94556.76
2019-02-01T04:47:18.932Z,94552.75
2019-02-01T04:49:45.285Z,94558.47
2019-02-01T04:52:11.666Z,94565.26
2019-02-01T04:54:38.127Z,94566.40
2019-02-01T04:57:04.472Z,94568.72
2019-02-01T04:59:30.799Z,94567.92
2019-02-01T05:01:57.184Z,94576.44
2019-02-01T05:04:23.508Z,94579.11
2019-02-01T05:06:49.844Z,94573.84
2019-02-01T05:09:16.207Z,94582.36
2019-02-01T05:11:42.540Z,94582.36
2019-02-01T05:14:08.912Z,94587.52
2019-02-01T05:16:35.334Z,94587.29
2019-02-01T05:19:01.647Z,94599.20
2019-02-01T05:21:27.989Z,94596.41
2019-02-01T05:23:54.333Z,94606.60
2019-02-01T05:26:20.706Z,94603.42
2019-02-01T05:28:47.064Z,94600.84
2019-02-01T05:31:13.388Z,94603.52
2019-02-01T05:33:39.713Z,94603.98
2019-02-01T05:36:06.051Z,94615.78
2019-02-01T05:38:32.374Z,94606.30
2019-02-01T05:40:58.725Z,94606.16
2019-02-01T05:43:25.096Z,94598.98
2019-02-01T05:45:51.476Z,94606.95
2019-02-01T05:48:17.849Z,94602.03
2019-02-01T05:50:44.217Z,94605.88
2019-02-01T05:53:10.513Z,94618.05
2019-02-01T05:55:36.915Z,94624.84
2019-02-01T05:58:03.234Z,94629.90
2019-02-01T06:00:32.628Z,94633.66
2019-02-01T06:02:55.983Z,94638.17
2019-02-01T06:05:22.295Z,94643.39
2019-02-01T06:07:48.646Z,94642.31
2019-02-01T06:10:14.980Z,94645.39
2019-02-01T06:12:41.331Z,94646.05
2019-02-01T06:15:08.075Z,94644.94
2019-02-01T06:17:34.424Z,94647.26
2019-02-01T06:20:00.798Z,94652.71
2019-02-01T06:22:27.100Z,94660.35
2019-02-01T06:24:53.598Z,94661.42
2019-02-01T06:27:19.922Z,94658.25
2019-02-01T06:29:46.275Z,94659.28
2019-02-01T06:32:12.603Z,94658.41
2019-02-01T06:34:39.077Z,94667.45
2019-02-01T06:37:05.322Z,94664.06
2019-02-01T06:39:31.662Z,94664.08
2019-02-01T06:41:58.009Z,94673.52
2019-02-01T06:44:24.389Z,94674.84
2019-02-01T06:46:50.748Z,94674.89
2019-02-01T06:49:17.104Z,94681.49
2019-02-01T06:51:43.489Z,94683.19
2019-02-01T06:54:09.848Z,94679.06
2019-02-01T06:56:36.225Z,94685.17
2019-02-01T06:59:02.564Z,94690.41
2019-02-01T07:01:28.942Z,94682.52
2019-02-01T07:03:55.288Z,94679.67
2019-02-01T07:06:21.647Z,94681.94
2019-02-01T07:08:48.006Z,94674.87
2019-02-01T07:11:14.390Z,94674.95
2019-02-01T07:13:40.733Z,94676.16
2019-02-01T07:16:07.170Z,94681.75
2019-02-01T07:18:33.571Z,94695.73
2019-02-01T07:21:04.086Z,94696.47
2019-02-01T07:23:26.469Z,94699.59
2019-02-01T07:25:53.356Z,94706.00
2019-02-01T07:28:19.702Z,94700.30
2019-02-01T07:30:46.075Z,94702.14
2019-02-01T07:33:12.410Z,94702.06
2019-02-01T07:35:38.856Z,94718.57
2019-02-01T07:38:05.166Z,94722.09
2019-02-01T07:40:31.500Z,94725.97
2019-02-01T07:42:58.012Z,94718.70
2019-02-01T07:45:24.748Z,94726.25
2019-02-01T07:47:51.306Z,94732.22
2019-02-01T07:50:24.146Z,94742.91
2019-02-01T07:52:44.159Z,94718.91
2019-02-01T07:55:10.527Z,94735.88
2019-02-01T07:57:36.825Z,94745.77
2019-02-01T08:00:03.199Z,94755.39
2019-02-01T08:02:29.619Z,94749.37
2019-02-01T08:04:55.921Z,94745.07
2019-02-01T08:07:22.323Z,94752.19
2019-02-01T08:09:48.726Z,94739.20
2019-02-01T08:12:15.223Z,94749.95
2019-02-01T08:14:41.628Z,94731.53
2019-02-01T08:17:07.995Z,94738.66
2019-02-01T08:19:34.338Z,94746.08
2019-02-01T08:22:00.965Z,94751.25
2019-02-01T08:24:27.256Z,94755.44
2019-02-01T08:26:53.610Z,94768.31
2019-02-01T08:29:20.019Z,94758.53
2019-02-01T08:31:46.361Z,94761.58
2019-02-01T08:34:12.805Z,94763.73
2019-02-01T08:36:39.156Z,94758.25
2019-02-01T08:39:05.508Z,94767.61
2019-02-01T08:41:31.880Z,94763.81
2019-02-01T08:43:58.228Z,94761.70
2019-02-01T08:46:24.579Z,94765.03
2019-02-01T08:48:53.135Z,94758.09
2019-02-01T08:51:19.466Z,94773.60
2019-02-01T08:53:45.860Z,94771.38
2019-02-01T08:56:12.213Z,94771.72
2019-02-01T08:58:38.706Z,94776.46
2019-02-01T09:01:05.316Z,94768.62
2019-02-01T09:03:31.736Z,94760.95
2019-02-01T09:05:58.119Z,94767.59
2019-02-01T09:08:24.600Z,94762.80
2019-02-01T09:10:51.048Z,94762.45
2019-02-01T09:13:17.477Z,94764.02
2019-02-01T09:15:44.006Z,94762.16
2019-02-01T09:18:10.413Z,94761.38
2019-02-01T09:20:36.880Z,94761.50
2019-02-01T09:23:03.244Z,94772.31
2019-02-01T09:25:29.737Z,94777.67
2019-02-01T09:27:56.064Z,94787.89
2019-02-01T09:30:22.414Z,94785.42
2019-02-01T09:32:48.778Z,94790.00
2019-02-01T09:35:16.387Z,94776.65
2019-02-01T09:37:43.757Z,94779.94
2019-02-01T09:40:08.996Z,94787.81
2019-02-01T09:42:35.479Z,94785.15
2019-02-01T09:45:01.820Z,94789.36
2019-02-01T09:47:28.233Z,94784.83
2019-02-01T09:49:54.572Z,94795.35
2019-02-01T09:52:20.903Z,94791.83
2019-02-01T09:54:47.246Z,94787.41
2019-02-01T09:57:13.590Z,94793.59
2019-02-01T09:59:39.917Z,94778.64
2019-02-01T10:02:06.249Z,94783.06
2019-02-01T10:04:32.632Z,94789.72
2019-02-01T10:06:58.989Z,94784.68
2019-02-01T10:09:25.362Z,94793.25
2019-02-01T10:11:51.754Z,94794.27
2019-02-01T10:14:18.084Z,94780.22
2019-02-01T10:16:44.481Z,94782.45
2019-02-01T10:19:10.848Z,94788.83
2019-02-01T10:21:37.236Z,94781.82
2019-02-01T10:24:03.564Z,94779.98
2019-02-01T10:26:29.890Z,94775.52
2019-02-01T10:28:56.222Z,94775.37
2019-02-01T10:31:22.600Z,94778.58
2019-02-01T10:33:48.935Z,94785.58
2019-02-01T10:36:15.278Z,94775.87
2019-02-01T10:38:41.809Z,94778.77
2019-02-01T10:41:08.155Z,94771.99
2019-02-01T10:43:34.583Z,94762.99
2019-02-01T10:46:01.107Z,94762.13
2019-02-01T10:48:27.504Z,94764.76
2019-02-01T10:50:53.857Z,94765.66
2019-02-01T10:53:20.198Z,94768.44
2019-02-01T10:55:46.570Z,94766.00
2019-02-01T10:58:12.979Z,94764.75
2019-02-01T11:00:42.192Z,94760.88
2019-02-01T11:03:08.591Z,94755.23
2019-02-01T11:05:34.957Z,94758.09
2019-02-01T11:08:01.333Z,94757.43
2019-02-01T11:10:27.733Z,94761.22
2019-02-01T11:12:54.274Z,94755.94
2019-02-01T11:15:20.660Z,94752.10
2019-02-01T11:17:47.152Z,94755.23
2019-02-01T11:20:14.427Z,94759.06
2019-02-01T11:22:40.827Z,94760.94
2019-02-01T11:25:07.183Z,94761.38
2019-02-01T11:27:33.571Z,94760.00
2019-02-01T11:29:59.968Z,94756.75
2019-02-01T11:32:26.333Z,94751.31
2019-02-01T11:34:52.662Z,94744.61
2019-02-01T11:37:19.035Z,94739.12
2019-02-01T11:39:47.172Z,94736.66
2019-02-01T11:42:11.902Z,94741.83
2019-02-01T11:44:38.368Z,94734.97
2019-02-01T11:47:04.883Z,94739.59
2019-02-01T11:49:31.446Z,94748.72
2019-02-01T11:51:59.455Z,94748.75
2019-02-01T11:54:25.848Z,94746.52
2019-02-01T11:56:52.196Z,94733.87
2019-02-01T11:59:18.534Z,94729.91
2019-02-01T12:01:44.916Z,94725.30
2019-02-01T12:04:11.294Z,94726.50
2019-02-01T12:06:37.621Z,94728.34
2019-02-01T12:09:03.954Z,94731.08
2019-02-01T12:11:30.344Z,94722.11
2019-02-01T12:13:56.790Z,94728.61
2019-02-01T12:16:23.200Z,94733.45
2019-02-01T12:18:49.549Z,94720.95
2019-02-01T12:21:15.891Z,94734.77
2019-02-01T12:23:42.674Z,94744.84
2019-02-01T12:26:09.153Z,94729.99
2019-02-01T12:28:35.618Z,94723.45
2019-02-01T12:31:01.983Z,94727.20
2019-02-01T12:33:28.382Z,94724.95
2019-02-01T12:35:54.814Z,94724.55
2019-02-01T12:38:21.227Z,94720.32
2019-02-01T12:40:47.597Z,94721.58
2019-02-01T12:43:13.952Z,94719.94
2019-02-01T12:45:40.297Z,94717.91
2019-02-01T12:48:06.682Z,94721.03
2019-02-01T12:50:33.028Z,94721.16
2019-02-01T12:53:10.889Z,94715.97
2019-02-01T12:55:25.798Z,94714.48
2019-02-01T12:57:52.283Z,94718.23
2019-02-01T13:00:18.704Z,94716.46
2019-02-01T13:02:45.117Z,94709.19
2019-02-01T13:05:11.607Z,94705.50
2019-02-01T13:07:38.002Z,94710.70
2019-02-01T13:10:04.505Z,94712.84
2019-02-01T13:12:30.904Z,94694.37
2019-02-01T13:14:57.277Z,94704.75
2019-02-01T13:17:23.614Z,94707.62
2019-02-01T13:19:49.946Z,94713.23
2019-02-01T13:22:16.286Z,94706.80
2019-02-01T13:24:45.272Z,94707.11
2019-02-01T13:27:09.184Z,94711.23
2019-02-01T13:29:35.586Z,94720.03
2019-02-01T13:32:02.007Z,94717.45
2019-02-01T13:34:28.461Z,94716.31
2019-02-01T13:36:54.792Z,94720.59
2019-02-01T13:39:22.228Z,94721.63
2019-02-01T13:41:48.600Z,94727.08
2019-02-01T13:44:15.029Z,94725.59
2019-02-01T13:46:41.482Z,94721.53
2019-02-01T13:49:07.880Z,94725.66
2019-02-01T13:51:34.262Z,94725.47
2019-02-01T13:54:00.610Z,94729.38
2019-02-01T13:56:27.028Z,94733.50
2019-02-01T13:58:53.641Z,94735.72
2019-02-01T14:01:20.060Z,94736.94
2019-02-01T14:03:46.498Z,94739.32
2019-02-01T14:06:13.005Z,94741.09
2019-02-01T14:08:39.366Z,94732.40
2019-02-01T14:11:05.734Z,94729.86
2019-02-01T14:13:32.075Z,94742.57
2019-02-01T14:15:58.422Z,94743.59
2019-02-01T14:18:24.812Z,94741.17
2019-02-01T14:20:51.178Z,94740.82
2019-02-01T14:23:17.558Z,94746.25
2019-02-01T14:25:43.945Z,94752.99
2019-02-01T14:28:10.274Z,94749.23
2019-02-01T14:30:36.623Z,94753.39
2019-02-01T14:33:03.050Z,94752.73
2019-02-01T14:35:29.426Z,94746.89
2019-02-01T14:37:55.811Z,94744.16
2019-02-01T14:40:22.218Z,94737.62
2019-02-01T14:42:48.517Z,94738.52
2019-02-01T14:45:14.862Z,94741.64
2019-02-01T14:47:41.307Z,94743.05
2019-02-01T14:50:07.522Z,94745.91
2019-02-01T14:52:33.852Z,94734.02
2019-02-01T14:55:00.201Z,94741.28
2019-02-01T14:57:26.559Z,94738.52
2019-02-01T14:59:52.886Z,94750.54
2019-02-01T15:02:19.254Z,94754.10
2019-02-01T15:04:45.605Z,94756.21
2019-02-01T15:07:12.017Z,94746.67
2019-02-01T15:09:38.357Z,94752.80
2019-02-01T15:12:04.700Z,94752.06
2019-02-01T15:14:31.081Z,94758.17
2019-02-01T15:16:57.473Z,94765.37
2019-02-01T15:19:25.069Z,94770.16
2019-02-01T15:21:51.417Z,94772.73
2019-02-01T15:24:17.774Z,94779.39
2019-02-01T15:26:44.253Z,94778.72
2019-02-01T15:29:10.673Z,94773.88
2019-02-01T15:31:37.078Z,94773.55
2019-02-01T15:34:03.536Z,94774.70
2019-02-01T15:36:29.882Z,94771.99
2019-02-01T15:38:56.318Z,94771.99
2019-02-01T15:41:22.685Z,94775.59
2019-02-01T15:43:49.197Z,94779.05
2019-02-01T15:46:15.459Z,94774.89
2019-02-01T15:48:41.940Z,94779.20
2019-02-01T15:51:08.287Z,94774.89
2019-02-01T15:53:34.671Z,94773.28
2019-02-01T15:56:01.011Z,94770.90
2019-02-01T15:58:27.355Z,94771.09
2019-02-01T16:00:53.735Z,94775.91
2019-02-01T16:03:20.132Z,94774.30
2019-02-01T16:05:46.461Z,94779.13
2019-02-01T16:08:12.808Z,94774.23
2019-02-01T16:10:39.149Z,94786.45
2019-02-01T16:13:05.483Z,94777.09
2019-02-01T16:15:31.807Z,94782.17
2019-02-01T16:17:58.166Z,94782.45
2019-02-01T16:20:24.495Z,94781.82
2019-02-01T16:22:50.906Z,94774.97
2019-02-01T16:25:17.308Z,94779.31
2019-02-01T16:27:43.636Z,94786.32
2019-02-01T16:30:09.970Z,94776.53
2019-02-01T16:32:36.298Z,94785.66
2019-02-01T16:35:02.654Z,94789.25
2019-02-01T16:37:28.982Z,94789.79
2019-02-01T16:39:55.379Z,94793.23
2019-02-01T16:42:21.714Z,94789.84
2019-02-01T16:44:48.038Z,94788.36
2019-02-01T16:47:14.370Z,94786.31
2019-02-01T16:49:40.745Z,94786.08
2019-02-01T16:52:07.094Z,94770.63
2019-02-01T16:54:43.939Z,94771.91
2019-02-01T16:56:59.805Z,94776.81
2019-02-01T16:59:26.138Z,94773.09
2019-02-01T17:01:52.529Z,94776.92
2019-02-01T17:04:18.869Z,94779.27
2019-02-01T17:06:45.211Z,94779.93
2019-02-01T17:09:11.576Z,94776.95
2019-02-01T17:11:37.903Z,94784.02
2019-02-01T17:14:04.279Z,94783.39
2019-02-01T17:16:30.616Z,94786.79
2019-02-01T17:18:56.966Z,94785.41
2019-02-01T17:21:23.332Z,94786.52
2019-02-01T17:23:49.678Z,94787.11
2019-02-01T17:26:16.033Z,94791.95
2019-02-01T17:28:42.395Z,94791.25
2019-02-01T17:31:11.555Z,94796.70
2019-02-01T17:33:35.105Z,94797.47
2019-02-01T17:36:01.440Z,94806.51
2019-02-01T17:38:27.823Z,94805.02
2019-02-01T17:40:54.165Z,94812.88
2019-02-01T17:43:20.500Z,94807.68
2019-02-01T17:45:46.827Z,94806.98
2019-02-01T17:48:13.212Z,94809.00
2019-02-01T17:50:39.500Z,94804.08
2019-02-01T17:53:05.829Z,94809.27
2019-02-01T17:55:32.174Z,94810.35
2019-02-01T17:57:58.507Z,94814.31
2019-02-01T18:00:24.835Z,94806.16
2019-02-01T18:02:51.169Z,94811.34
2019-02-01T18:05:17.587Z,94818.09
2019-02-01T18:07:43.927Z,94820.52
2019-02-01T18:10:10.257Z,94828.88
2019-02-01T18:12:36.673Z,94830.17
2019-02-01T18:15:03.002Z,94830.91
2019-02-01T18:17:30.331Z,94834.45
2019-02-01T18:19:55.743Z,94833.19
2019-02-01T18:22:22.071Z,94835.77
2019-02-01T18:24:48.527Z,94838.28
2019-02-01T18:27:14.870Z,94837.11
2019-02-01T18:29:41.207Z,94836.56
2019-02-01T18:32:07.568Z,94836.73
2019-02-01T18:34:33.926Z,94833.23
2019-02-01T18:37:00.276Z,94845.84
2019-02-01T18:39:26.606Z,94842.77
2019-02-01T18:41:52.965Z,94841.84
2019-02-01T18:44:19.301Z,94839.67
2019-02-01T18:46:45.678Z,94841.68
2019-02-01T18:49:12.016Z,94840.44
2019-02-01T18:51:38.353Z,94845.84
2019-02-01T18:54:05.721Z,94836.36
2019-02-01T18:56:32.157Z,94843.98
2019-02-01T18:58:58.590Z,94841.45
2019-02-01T19:01:24.934Z,94837.69
2019-02-01T19:03:51.275Z,94843.31
2019-02-01T19:06:17.647Z,94845.82
2019-02-01T19:08:44.013Z,94841.95
2019-02-01T19:11:10.298Z,94847.11
2019-02-01T19:13:36.719Z,94846.30
2019-02-01T19:16:03.058Z,94847.50
2019-02-01T19:18:29.393Z,94842.34
2019-02-01T19:20:55.734Z,94837.45
2019-02-01T19:23:22.075Z,94839.89
2019-02-01T19:25:48.409Z,94841.28
2019-02-01T19:28:14.776Z,94835.66
2019-02-01T19:30:41.183Z,94836.84
2019-02-01T19:33:07.546Z,94838.38
2019-02-01T19:35:33.996Z,94829.15
2019-02-01T19:38:00.401Z,94820.84
2019-02-01T19:40:26.773Z,94824.25
2019-02-01T19:42:53.139Z,94826.72
2019-02-01T19:45:19.607Z,94830.00
2019-02-01T19:47:45.970Z,94830.72
2019-02-01T19:50:12.345Z,94830.61
2019-02-01T19:52:38.711Z,94835.88
2019-02-01T19:55:05.081Z,94837.73
2019-02-01T19:57:31.555Z,94836.14
2019-02-01T19:59:57.987Z,94837.44
2019-02-01T20:02:24.420Z,94833.31
2019-02-01T20:04:50.789Z,94834.50
2019-02-01T20:07:17.155Z,94831.34
2019-02-01T20:09:43.578Z,94828.41
2019-02-01T20:12:09.942Z,94830.77
2019-02-01T20:14:38.523Z,94832.74
2019-02-01T20:17:02.676Z,94828.09
2019-02-01T20:19:29.084Z,94825.19
2019-02-01T20:21:55.470Z,94825.43
2019-02-01T20:24:21.918Z,94838.06
2019-02-01T20:26:48.277Z,94841.81
2019-02-01T20:29:14.642Z,94833.63
2019-02-01T20:31:41.009Z,94837.81
2019-02-01T20:34:07.375Z,94842.98
2019-02-01T20:36:33.749Z,94840.77
2019-02-01T20:39:00.105Z,94841.34
2019-02-01T20:41:26.466Z,94846.16
2019-02-01T20:43:52.964Z,94852.34
2019-02-01T20:46:19.332Z,94851.31
2019-02-01T20:48:45.707Z,94845.34
2019-02-01T20:51:12.077Z,94843.58
2019-02-01T20:53:38.472Z,94842.18
2019-02-01T20:56:04.848Z,94834.02
2019-02-01T20:58:31.211Z,94828.87
2019-02-01T21:00:57.566Z,94837.30
2019-02-01T21:03:23.926Z,94828.38
2019-02-01T21:05:50.288Z,94829.81
2019-02-01T21:08:16.653Z,94837.30
2019-02-01T21:10:43.069Z,94829.22
2019-02-01T21:13:14.414Z,94820.45
2019-02-01T21:15:35.912Z,94823.47
2019-02-01T21:18:02.307Z,94821.16
2019-02-01T21:20:28.710Z,94824.67
2019-02-01T21:22:55.148Z,94823.94
2019-02-01T21:25:21.615Z,94813.28
2019-02-01T21:27:48.049Z,94817.50
2019-02-01T21:30:14.407Z,94822.65
2019-02-01T21:32:40.774Z,94829.79
2019-02-01T21:35:07.270Z,94822.31
2019-02-01T21:37:33.765Z,94821.71
2019-02-01T21:40:00.187Z,94831.32
2019-02-01T21:42:26.651Z,94825.13
2019-02-01T21:44:53.026Z,94821.03
2019-02-01T21:47:19.387Z,94813.55
2019-02-01T21:49:45.778Z,94814.94
2019-02-01T21:52:12.134Z,94810.15
2019-02-01T21:54:38.601Z,94818.80
2019-02-01T21:57:04.935Z,94822.20
2019-02-01T21:59:31.289Z,94828.75
2019-02-01T22:01:57.685Z,94834.61
2019-02-01T22:04:24.072Z,94837.19
2019-02-01T22:06:50.495Z,94841.61
2019-02-01T22:09:16.861Z,94837.75
2019-02-01T22:11:43.258Z,94831.81
2019-02-01T22:14:09.762Z,94838.81
2019-02-01T22:16:36.292Z,94847.25
2019-02-01T22:19:02.656Z,94849.93
2019-02-01T22:21:29.033Z,94844.89
2019-02-01T22:23:55.461Z,94840.70
2019-02-01T22:26:21.849Z,94829.12
2019-02-01T22:28:48.225Z,94830.51
2019-02-01T22:31:14.627Z,94823.49
2019-02-01T22:33:40.986Z,94824.78
2019-02-01T22:36:07.443Z,94825.14
2019-02-01T22:38:33.760Z,94819.30
2019-02-01T22:41:00.134Z,94822.10
2019-02-01T22:43:26.482Z,94821.74
2019-02-01T22:45:53.176Z,94832.17
2019-02-01T22:48:19.544Z,94829.92
2019-02-01T22:50:45.904Z,94828.64
2019-02-01T22:53:20.473Z,94840.81
2019-02-01T22:55:38.639Z,94821.62
2019-02-01T22:58:06.414Z,94813.20
2019-02-01T23:00:31.401Z,94826.54
2019-02-01T23:02:57.791Z,94822.22
2019-02-01T23:05:24.110Z,94820.58
2019-02-01T23:07:53.502Z,94814.14
2019-02-01T23:10:19.877Z,94816.25
2019-02-01T23:12:46.211Z,94827.24
2019-02-01T23:15:12.545Z,94828.89
2019-02-01T23:17:47.996Z,94816.95
2019-02-01T23:20:16.567Z,94812.41
2019-02-01T23:22:44.239Z,94817.33
2019-02-01T23:25:09.296Z,94825.13
2019-02-01T23:27:35.651Z,94816.36
2019-02-01T23:30:01.950Z,94818.37
2019-02-01T23:32:28.323Z,94819.31
2019-02-01T23:34:54.651Z,94814.05
2019-02-01T23:37:23.533Z,94815.55
2019-02-01T23:39:52.817Z,94813.12
2019-02-01T23:42:21.603Z,94817.44
2019-02-01T23:44:49.149Z,94820.02
2019-02-01T23:47:15.542Z,94823.29
2019-02-01T23:49:42.716Z,94820.81
2019-02-01T23:52:09.110Z,94826.45
2019-02-01T23:54:35.417Z,94837.77
2019-02-01T23:57:01.771Z,94828.89
2019-02-01T23:59:28.154Z,94828.89
